Terminal Aerodrome Forecast
Issued by NWS

Home | Current Version | Previous Version | Text Only | Print | Product List | Glossary On
Versions: 1 2 3 4 5 6 7 8 9 10 11 12 13 14 15
000
FTUS41 KCLE 062338
TAFFDY
TAF
KFDY 062338Z 0700/0724 30008KT P6SM FEW250
     FM070200 VRB04KT P6SM FEW150 SCT250
     FM071300 24010KT P6SM BKN100
     FM071800 28012G20KT P6SM VCTS SCT025 OVC045CB
     FM072100 32015G25KT P6SM SCT025 OVC035=

USA.gov is the U.S. government's official web portal to all federal, state and local government web resources and services.